Time;durP1;ratioP1;P1;durP2;ratioP2;P2;SDS_P1;SDS_P2;PMS_P1;PMS_P2;Temp;Humidity;BMP_temperature;BMP_pressure;BME280_temperature;BME280_humidity;BME280_pressure;Samples;Min_cycle;Max_cycle;Signal;HPM_P1;HPM_P2
2023/07/01 00:01:09;;;;;;;4.53;4.13;;;16.50;99.90;;;;;;5140348;27;20479;-66
2023/07/01 00:03:37;;;;;;;6.37;5.50;;;16.60;99.90;;;;;;5140893;27;20463;-66
2023/07/01 00:06:04;;;;;;;5.20;4.00;;;16.60;99.90;;;;;;5140028;27;20466;-66
2023/07/01 00:08:31;;;;;;;5.10;4.07;;;16.60;99.90;;;;;;5139187;27;20557;-66
2023/07/01 00:11:03;;;;;;;4.03;3.63;;;16.60;99.90;;;;;;5140290;27;20716;-66
2023/07/01 00:13:30;;;;;;;7.00;3.63;;;16.60;99.90;;;;;;5140497;27;20563;-67
2023/07/01 00:15:57;;;;;;;4.97;3.80;;;16.70;99.90;;;;;;5140545;27;20557;-66
2023/07/01 00:18:24;;;;;;;4.10;3.70;;;16.70;99.90;;;;;;5140209;27;20762;-67
2023/07/01 00:20:52;;;;;;;3.87;3.47;;;16.70;99.90;;;;;;5139889;27;20462;-67
2023/07/01 00:23:19;;;;;;;5.47;3.93;;;16.70;99.90;;;;;;5139872;27;20462;-68
2023/07/01 00:25:46;;;;;;;3.77;3.20;;;16.70;99.90;;;;;;5140001;27;20561;-67
2023/07/01 00:28:19;;;;;;;6.97;4.30;;;16.70;99.90;;;;;;5139602;27;20548;-67
2023/07/01 00:30:46;;;;;;;5.00;3.90;;;16.80;99.90;;;;;;5134900;27;20463;-66
2023/07/01 00:33:14;;;;;;;4.10;3.70;;;16.80;99.90;;;;;;5136745;27;20486;-67
2023/07/01 00:35:41;;;;;;;8.47;4.30;;;16.80;99.90;;;;;;5138087;27;20454;-66
2023/07/01 00:38:10;;;;;;;4.50;3.73;;;16.80;99.90;;;;;;5138329;27;20936;-67
2023/07/01 00:40:38;;;;;;;4.93;3.60;;;16.90;99.90;;;;;;5139487;27;20515;-66
2023/07/01 00:43:05;;;;;;;4.33;3.30;;;16.80;99.90;;;;;;5139788;27;20541;-66
2023/07/01 00:45:33;;;;;;;4.53;4.10;;;16.80;99.90;;;;;;5139466;27;20437;-66
2023/07/01 00:48:01;;;;;;;5.30;3.73;;;16.80;99.90;;;;;;5138922;27;20466;-67
2023/07/01 00:50:28;;;;;;;4.20;3.80;;;16.80;99.90;;;;;;5138590;27;20462;-67
2023/07/01 00:52:56;;;;;;;4.70;3.67;;;16.90;99.90;;;;;;5137665;27;20491;-67
2023/07/01 00:55:23;;;;;;;4.07;3.60;;;16.80;99.90;;;;;;5138005;27;20519;-66
2023/07/01 00:57:50;;;;;;;4.57;3.67;;;16.90;99.90;;;;;;5138008;27;20740;-66
2023/07/01 01:00:18;;;;;;;6.20;3.87;;;16.90;99.90;;;;;;5137188;27;20482;-69
2023/07/01 01:02:54;;;;;;;4.17;3.77;;;17.00;99.90;;;;;;5137571;27;20930;-67
2023/07/01 01:05:29;;;;;;;4.60;4.10;;;17.00;99.90;;;;;;5138287;27;20494;-69
2023/07/01 01:08:03;;;;;;;6.73;3.63;;;17.00;99.90;;;;;;5139784;27;20880;-69
2023/07/01 01:10:33;;;;;;;4.87;3.80;;;16.90;99.90;;;;;;5138721;27;20454;-71
2023/07/01 01:13:05;;;;;;;6.43;4.00;;;16.90;99.90;;;;;;5139222;27;20486;-71
2023/07/01 01:15:34;;;;;;;4.40;3.70;;;17.00;99.90;;;;;;5139508;27;20486;-74
2023/07/01 01:18:05;;;;;;;5.40;4.03;;;17.00;99.90;;;;;;5139798;27;20846;-70
2023/07/01 01:20:36;;;;;;;4.53;4.13;;;17.00;99.90;;;;;;5138989;27;20458;-73
2023/07/01 01:23:11;;;;;;;4.77;3.63;;;17.00;99.90;;;;;;5140234;27;20462;-74
2023/07/01 01:25:44;;;;;;;6.40;4.23;;;17.00;99.90;;;;;;5139370;27;20926;-75
2023/07/01 01:28:13;;;;;;;5.03;3.50;;;17.00;99.90;;;;;;5142084;27;20910;-70
2023/07/01 01:30:40;;;;;;;4.33;3.90;;;17.00;99.90;;;;;;5140903;27;20469;-71
2023/07/01 01:33:07;;;;;;;5.67;4.47;;;17.00;99.90;;;;;;5139118;27;20797;-71
2023/07/01 01:35:34;;;;;;;5.80;3.80;;;17.00;99.90;;;;;;5140928;27;20886;-70
2023/07/01 01:38:06;;;;;;;5.37;4.03;;;17.00;99.90;;;;;;5140300;27;20459;-73
2023/07/01 01:40:38;;;;;;;6.87;4.20;;;17.00;99.90;;;;;;5141925;27;20832;-74
2023/07/01 01:43:10;;;;;;;4.03;3.50;;;17.00;99.90;;;;;;5141807;27;20430;-74
2023/07/01 01:45:39;;;;;;;4.80;4.27;;;17.00;99.90;;;;;;5144264;27;20458;-71
2023/07/01 01:48:08;;;;;;;7.97;3.87;;;17.00;99.90;;;;;;5141981;27;20459;-70
2023/07/01 01:50:37;;;;;;;3.90;3.40;;;17.10;99.90;;;;;;5140538;27;20466;-68
2023/07/01 01:53:05;;;;;;;7.93;3.50;;;17.10;99.90;;;;;;5138337;27;20468;-69
2023/07/01 01:55:32;;;;;;;4.10;3.70;;;17.00;99.90;;;;;;5138249;27;20897;-67
2023/07/01 01:58:00;;;;;;;4.00;3.60;;;17.10;99.90;;;;;;5137801;27;20459;-69
2023/07/01 02:00:28;;;;;;;4.40;3.57;;;17.00;99.90;;;;;;5138465;27;20481;-68
2023/07/01 02:02:56;;;;;;;3.40;3.10;;;17.10;99.90;;;;;;5138472;27;20455;-75
2023/07/01 02:05:23;;;;;;;3.83;3.43;;;17.00;99.90;;;;;;5138617;27;20459;-72
2023/07/01 02:07:50;;;;;;;4.57;3.80;;;17.00;99.90;;;;;;5138522;27;20462;-75
2023/07/01 02:10:19;;;;;;;3.43;3.13;;;17.10;99.90;;;;;;5138300;27;20458;-68
2023/07/01 02:12:46;;;;;;;6.00;2.90;;;17.00;99.90;;;;;;5138201;28;20491;-67
2023/07/01 02:15:13;;;;;;;4.80;3.40;;;17.00;99.90;;;;;;5138289;28;20464;-67
2023/07/01 02:17:41;;;;;;;5.53;3.60;;;17.00;99.90;;;;;;5138287;28;20466;-69
2023/07/01 02:20:11;;;;;;;4.60;4.03;;;17.00;99.90;;;;;;5137813;28;20462;-70
2023/07/01 02:22:38;;;;;;;4.00;3.20;;;17.00;99.90;;;;;;5137404;28;20875;-69
2023/07/01 02:25:07;;;;;;;6.17;3.80;;;17.00;99.90;;;;;;5138301;28;20875;-65
2023/07/01 02:27:34;;;;;;;3.77;3.47;;;17.00;99.90;;;;;;5138461;28;20488;-69
2023/07/01 02:30:02;;;;;;;4.37;3.37;;;17.00;99.90;;;;;;5138202;28;20896;-67
2023/07/01 02:32:30;;;;;;;3.93;3.57;;;17.10;99.90;;;;;;5138260;28;20462;-71
2023/07/01 02:34:57;;;;;;;4.93;3.97;;;17.10;99.90;;;;;;5138059;28;20462;-70
2023/07/01 02:37:25;;;;;;;5.77;3.60;;;17.10;99.90;;;;;;5138019;28;20463;-72
2023/07/01 02:39:52;;;;;;;4.33;3.93;;;17.10;99.90;;;;;;5137814;28;20459;-77
2023/07/01 02:42:20;;;;;;;4.07;3.40;;;17.20;99.90;;;;;;5138097;28;20884;-70
2023/07/01 02:44:47;;;;;;;4.27;3.70;;;17.10;99.90;;;;;;5138874;28;20543;-75
2023/07/01 02:47:14;;;;;;;4.33;3.83;;;17.10;99.90;;;;;;5139182;28;20785;-72
2023/07/01 02:49:41;;;;;;;5.03;3.57;;;17.20;99.90;;;;;;5137784;27;20755;-68
2023/07/01 02:52:09;;;;;;;6.50;3.90;;;17.20;99.90;;;;;;5140603;27;20433;-76
2023/07/01 02:54:40;;;;;;;4.93;3.30;;;17.20;99.90;;;;;;5143913;27;20498;-76
2023/07/01 02:57:08;;;;;;;4.30;3.37;;;17.30;99.90;;;;;;5142332;27;20516;-69
2023/07/01 02:59:35;;;;;;;5.43;3.60;;;17.30;99.90;;;;;;5143604;27;20462;-72
2023/07/01 03:02:02;;;;;;;6.13;4.30;;;17.40;99.90;;;;;;5141774;27;20489;-67
2023/07/01 03:04:30;;;;;;;3.80;3.40;;;17.30;99.90;;;;;;5141803;27;20890;-68
2023/07/01 03:06:57;;;;;;;4.00;3.50;;;17.40;99.90;;;;;;5141991;27;20561;-71
2023/07/01 03:09:24;;;;;;;4.00;3.60;;;17.40;99.90;;;;;;5141650;27;20809;-71
2023/07/01 03:11:53;;;;;;;5.57;3.50;;;17.30;99.90;;;;;;5142307;27;20469;-69
2023/07/01 03:14:20;;;;;;;4.10;3.60;;;17.40;99.90;;;;;;5141814;27;20494;-71
2023/07/01 03:16:49;;;;;;;4.60;3.73;;;17.30;99.90;;;;;;5141975;27;20485;-69
2023/07/01 03:19:17;;;;;;;4.60;3.67;;;17.40;99.90;;;;;;5141546;27;20773;-78
2023/07/01 03:21:45;;;;;;;3.30;3.03;;;17.40;99.90;;;;;;5142376;27;20467;-74
2023/07/01 03:24:12;;;;;;;4.13;3.73;;;17.40;99.90;;;;;;5141588;27;20462;-74
2023/07/01 03:26:39;;;;;;;4.03;3.13;;;17.40;99.90;;;;;;5142833;27;20473;-77
2023/07/01 03:29:08;;;;;;;5.13;3.87;;;17.30;99.90;;;;;;5142016;27;20462;-68
2023/07/01 03:31:35;;;;;;;8.17;3.90;;;17.30;99.90;;;;;;5141337;27;20462;-75
2023/07/01 03:34:02;;;;;;;7.53;3.47;;;17.30;99.90;;;;;;5141052;27;20491;-73
2023/07/01 03:36:29;;;;;;;4.23;3.83;;;17.30;99.90;;;;;;5141258;27;20465;-74
2023/07/01 03:38:58;;;;;;;3.83;3.53;;;17.30;99.90;;;;;;5141264;27;20469;-79
2023/07/01 03:41:25;;;;;;;3.70;3.40;;;17.40;99.90;;;;;;5142022;27;20494;-71
2023/07/01 03:43:52;;;;;;;4.20;3.23;;;17.30;99.90;;;;;;5141804;27;20454;-76
2023/07/01 03:46:21;;;;;;;6.30;3.50;;;17.30;99.90;;;;;;5141539;27;20869;-73
2023/07/01 03:48:48;;;;;;;6.47;4.67;;;17.40;99.90;;;;;;5141201;27;20458;-73
2023/07/01 03:51:16;;;;;;;3.83;3.43;;;17.40;99.90;;;;;;5141329;27;20465;-78
2023/07/01 03:53:43;;;;;;;4.90;3.73;;;17.30;99.90;;;;;;5141481;27;20551;-73
2023/07/01 03:56:10;;;;;;;5.67;3.70;;;17.40;99.90;;;;;;5140973;27;20459;-72
2023/07/01 03:58:37;;;;;;;5.83;3.60;;;17.50;99.90;;;;;;5140965;27;20458;-76
2023/07/01 04:01:05;;;;;;;4.83;3.70;;;17.40;99.90;;;;;;5140665;27;20493;-75
2023/07/01 04:03:35;;;;;;;4.00;3.63;;;17.50;99.90;;;;;;5139600;27;20459;-71
2023/07/01 04:06:02;;;;;;;4.63;4.20;;;17.50;99.90;;;;;;5141270;27;20463;-72
2023/07/01 04:08:30;;;;;;;5.40;3.07;;;17.50;99.90;;;;;;5140577;27;20755;-76
2023/07/01 04:10:57;;;;;;;4.07;3.63;;;17.50;99.90;;;;;;5141767;27;20463;-77
2023/07/01 04:13:24;;;;;;;4.37;3.63;;;17.50;99.90;;;;;;5141715;27;20493;-76
2023/07/01 04:15:52;;;;;;;4.67;3.63;;;17.50;99.90;;;;;;5142146;27;20462;-73
2023/07/01 04:18:19;;;;;;;3.90;3.50;;;17.60;99.90;;;;;;5140434;27;20437;-72
2023/07/01 04:20:47;;;;;;;4.97;3.80;;;17.60;99.90;;;;;;5140328;27;20489;-71
2023/07/01 04:23:14;;;;;;;4.77;3.33;;;17.60;99.90;;;;;;5141203;27;20907;-74
2023/07/01 04:25:42;;;;;;;4.00;3.27;;;17.60;99.90;;;;;;5141851;27;20727;-77
2023/07/01 04:28:09;;;;;;;4.13;3.60;;;17.60;99.90;;;;;;5140493;27;20867;-78
2023/07/01 04:30:36;;;;;;;6.17;4.07;;;17.70;99.90;;;;;;5141706;27;20463;-68
2023/07/01 04:33:03;;;;;;;6.50;3.97;;;17.60;99.90;;;;;;5141222;27;20770;-74
2023/07/01 04:35:30;;;;;;;3.57;3.20;;;17.60;99.90;;;;;;5141812;27;20463;-67
2023/07/01 04:37:59;;;;;;;9.33;4.10;;;17.60;99.90;;;;;;5140235;27;20459;-74
2023/07/01 04:40:26;;;;;;;4.43;4.03;;;17.70;99.90;;;;;;5139665;27;20553;-70
2023/07/01 04:42:53;;;;;;;7.00;4.13;;;17.70;99.90;;;;;;5139816;27;20507;-70
2023/07/01 04:45:21;;;;;;;6.40;4.10;;;17.70;99.90;;;;;;5139656;27;20458;-71
2023/07/01 04:47:49;;;;;;;6.67;3.80;;;17.70;99.90;;;;;;5139840;27;20970;-75
2023/07/01 04:50:16;;;;;;;4.60;4.20;;;17.70;99.90;;;;;;5129207;27;20717;-70
2023/07/01 04:52:45;;;;;;;4.20;3.63;;;17.80;99.90;;;;;;5119795;28;20434;-76
2023/07/01 04:55:13;;;;;;;7.57;4.23;;;17.80;99.90;;;;;;5119275;28;20487;-71
2023/07/01 04:57:41;;;;;;;4.10;3.70;;;17.80;99.90;;;;;;5119368;28;20546;-70
2023/07/01 05:00:10;;;;;;;5.20;3.73;;;17.90;99.90;;;;;;5119103;28;20464;-75
2023/07/01 05:02:37;;;;;;;4.50;3.93;;;17.90;99.90;;;;;;5120229;28;20581;-75
2023/07/01 05:05:05;;;;;;;6.10;4.13;;;18.00;99.90;;;;;;5119455;28;20851;-72
2023/07/01 05:07:33;;;;;;;4.33;3.77;;;18.00;99.90;;;;;;5119031;28;20460;-73
2023/07/01 05:10:00;;;;;;;4.50;4.10;;;18.00;99.90;;;;;;5120031;28;20463;-74
2023/07/01 05:12:30;;;;;;;4.37;3.93;;;18.00;99.90;;;;;;5118907;28;20434;-76
2023/07/01 05:14:57;;;;;;;5.63;3.70;;;18.10;99.90;;;;;;5117927;28;20770;-72
2023/07/01 05:17:24;;;;;;;5.63;4.07;;;18.20;99.90;;;;;;5119445;28;20733;-71
2023/07/01 05:19:51;;;;;;;7.17;4.50;;;18.20;99.90;;;;;;5118551;28;20466;-72
2023/07/01 05:22:18;;;;;;;5.07;4.30;;;18.40;99.90;;;;;;5118788;28;20463;-73
2023/07/01 05:24:45;;;;;;;5.70;3.43;;;18.30;99.90;;;;;;5130556;27;20455;-73
2023/07/01 05:27:12;;;;;;;4.13;3.67;;;18.30;99.90;;;;;;5139320;27;20473;-72
2023/07/01 05:29:41;;;;;;;5.40;3.97;;;18.30;99.90;;;;;;5141790;27;20503;-73
2023/07/01 05:32:08;;;;;;;4.90;4.40;;;18.40;99.90;;;;;;5141384;27;20465;-71
2023/07/01 05:34:35;;;;;;;4.43;4.00;;;18.40;99.90;;;;;;5140141;27;20487;-72
2023/07/01 05:37:03;;;;;;;4.23;3.83;;;18.50;99.90;;;;;;5140403;27;20879;-71
2023/07/01 05:39:30;;;;;;;7.23;4.60;;;18.40;99.90;;;;;;5138863;27;20481;-72
2023/07/01 05:41:58;;;;;;;4.00;3.57;;;18.40;99.90;;;;;;5138965;27;20462;-70
2023/07/01 05:44:25;;;;;;;5.30;3.90;;;18.50;99.90;;;;;;5138381;27;20458;-71
2023/07/01 05:46:54;;;;;;;4.10;3.70;;;18.50;99.90;;;;;;5138783;27;20515;-67
2023/07/01 05:49:21;;;;;;;4.33;3.93;;;18.50;99.90;;;;;;5138813;27;20465;-69
2023/07/01 05:51:49;;;;;;;4.20;3.80;;;18.70;99.90;;;;;;5138663;27;20470;-71
2023/07/01 05:54:16;;;;;;;6.70;4.37;;;18.80;99.90;;;;;;5137781;27;20491;-67
2023/07/01 05:56:43;;;;;;;9.63;3.73;;;18.90;99.90;;;;;;5138216;27;20462;-73
2023/07/01 05:59:11;;;;;;;4.40;4.00;;;19.00;99.90;;;;;;5138365;27;20465;-72
2023/07/01 06:01:38;;;;;;;5.80;4.70;;;19.10;99.90;;;;;;5138313;27;20497;-71
2023/07/01 06:04:07;;;;;;;5.23;4.27;;;19.20;99.90;;;;;;5138041;27;20466;-67
2023/07/01 06:06:34;;;;;;;3.90;3.60;;;19.20;99.90;;;;;;5137990;27;20559;-70
2023/07/01 06:09:01;;;;;;;4.07;3.67;;;19.20;99.90;;;;;;5138490;27;20440;-75
2023/07/01 06:11:29;;;;;;;4.20;3.80;;;19.10;99.90;;;;;;5138714;27;20462;-74
2023/07/01 06:13:56;;;;;;;5.80;3.70;;;19.20;99.90;;;;;;5138612;28;20581;-74
2023/07/01 06:16:23;;;;;;;4.40;3.80;;;19.10;99.90;;;;;;5135794;28;20531;-71
2023/07/01 06:18:50;;;;;;;5.50;3.93;;;19.30;99.90;;;;;;5127690;28;20459;-74
2023/07/01 06:21:19;;;;;;;7.07;3.60;;;19.30;99.90;;;;;;5138317;28;20454;-70
2023/07/01 06:23:46;;;;;;;5.40;3.70;;;19.30;1.00;;;;;;5138473;28;20466;-76
2023/07/01 06:26:14;;;;;;;4.50;4.10;;;19.40;99.90;;;;;;5141087;27;20856;-75
2023/07/01 06:28:41;;;;;;;5.23;4.10;;;19.40;1.00;;;;;;5141880;27;20465;-66
2023/07/01 06:31:08;;;;;;;4.83;4.00;;;19.30;1.00;;;;;;5141787;27;20911;-66
2023/07/01 06:33:38;;;;;;;4.77;3.97;;;19.30;99.90;;;;;;5142642;27;20557;-65
2023/07/01 06:36:06;;;;;;;4.10;3.73;;;19.30;1.00;;;;;;5141822;27;20465;-71
2023/07/01 06:38:34;;;;;;;12.70;4.30;;;19.20;1.00;;;;;;5141106;27;20458;-65
2023/07/01 06:41:01;;;;;;;4.53;3.60;;;19.10;1.00;;;;;;5142305;27;20465;-64
2023/07/01 06:43:28;;;;;;;4.07;3.50;;;19.00;99.90;;;;;;5145427;27;20458;-63
2023/07/01 06:45:55;;;;;;;4.67;3.77;;;18.80;1.00;;;;;;5144023;27;20820;-63
2023/07/01 06:48:23;;;;;;;6.40;3.77;;;18.80;1.00;;;;;;5143544;27;20944;-67
2023/07/01 06:50:50;;;;;;;4.83;4.13;;;18.70;1.00;;;;;;5141929;27;20462;-65
2023/07/01 06:53:17;;;;;;;5.03;4.40;;;18.50;1.00;;;;;;5142415;27;20871;-63
2023/07/01 06:55:45;;;;;;;6.17;4.00;;;18.50;1.00;;;;;;5141874;27;20490;-68
2023/07/01 06:58:12;;;;;;;4.33;3.37;;;18.40;99.90;;;;;;5141093;27;20462;-66
2023/07/01 07:00:40;;;;;;;5.83;3.90;;;18.20;99.90;;;;;;5141304;27;20454;-66
2023/07/01 07:03:07;;;;;;;7.73;4.63;;;18.20;1.00;;;;;;5141382;27;20775;-65
2023/07/01 07:05:34;;;;;;;4.53;3.90;;;18.10;99.90;;;;;;5142528;27;20454;-63
2023/07/01 07:08:01;;;;;;;4.47;4.07;;;18.00;1.00;;;;;;5144587;27;20466;-63
2023/07/01 07:10:29;;;;;;;9.03;3.97;;;17.90;99.90;;;;;;5148726;27;20553;-67
2023/07/01 07:12:57;;;;;;;4.73;4.30;;;18.00;1.00;;;;;;5148096;27;20458;-65
2023/07/01 07:15:24;;;;;;;5.33;4.10;;;18.00;1.00;;;;;;5142581;27;20485;-70
2023/07/01 07:17:51;;;;;;;6.73;4.40;;;18.00;1.00;;;;;;5143542;27;20458;-69
2023/07/01 07:20:19;;;;;;;4.63;3.90;;;17.90;1.00;;;;;;5141710;27;20465;-65
2023/07/01 07:22:46;;;;;;;5.30;4.27;;;17.90;1.00;;;;;;5142003;27;20557;-65
2023/07/01 07:25:16;;;;;;;5.63;3.53;;;18.00;1.00;;;;;;5141964;27;20895;-66
2023/07/01 07:27:44;;;;;;;5.03;3.73;;;18.10;1.00;;;;;;5141820;27;20458;-65
2023/07/01 07:30:14;;;;;;;6.80;4.47;;;18.20;1.00;;;;;;5141326;27;20868;-66
2023/07/01 07:32:42;;;;;;;5.60;4.30;;;18.10;1.00;;;;;;5141521;27;20458;-69
2023/07/01 07:35:09;;;;;;;5.33;4.20;;;18.10;1.00;;;;;;5140440;27;21026;-69
2023/07/01 07:37:37;;;;;;;5.33;4.03;;;18.10;1.00;;;;;;5140468;27;20744;-66
2023/07/01 07:40:07;;;;;;;5.83;3.90;;;18.00;1.00;;;;;;5142035;27;20454;-65
2023/07/01 07:42:34;;;;;;;5.30;4.23;;;17.90;1.00;;;;;;5140622;27;20459;-67
2023/07/01 07:45:01;;;;;;;4.30;3.83;;;18.00;1.00;;;;;;5138779;27;20473;-70
2023/07/01 07:47:30;;;;;;;5.67;4.13;;;18.00;1.00;;;;;;5139604;27;20459;-69
2023/07/01 07:49:57;;;;;;;4.77;4.00;;;18.00;1.00;;;;;;5141202;27;20549;-66
2023/07/01 07:52:24;;;;;;;6.73;4.30;;;17.90;1.00;;;;;;5140940;27;20458;-66
2023/07/01 07:54:51;;;;;;;6.10;4.37;;;17.80;1.00;;;;;;5140272;27;20777;-64
2023/07/01 07:57:19;;;;;;;6.87;4.57;;;17.80;1.00;;;;;;5140621;27;20459;-66
2023/07/01 07:59:46;;;;;;;4.03;3.63;;;17.80;1.00;;;;;;5140556;27;20459;-68
2023/07/01 08:02:14;;;;;;;6.27;4.30;;;18.00;1.00;;;;;;5140029;27;20482;-68
2023/07/01 08:04:42;;;;;;;4.93;4.43;;;18.00;1.00;;;;;;5142098;27;20542;-68
2023/07/01 08:07:10;;;;;;;5.50;4.03;;;17.90;1.00;;;;;;5141580;27;20978;-68
2023/07/01 08:09:38;;;;;;;4.13;3.73;;;18.00;1.00;;;;;;5140806;27;20462;-68
2023/07/01 08:12:06;;;;;;;5.43;4.93;;;18.00;1.00;;;;;;5139856;27;20465;-65
2023/07/01 08:14:33;;;;;;;5.90;4.00;;;18.00;1.00;;;;;;5139715;27;20934;-66
2023/07/01 08:17:01;;;;;;;5.07;4.57;;;17.90;1.00;;;;;;5140009;27;20454;-66
2023/07/01 08:19:28;;;;;;;4.50;4.07;;;18.00;1.00;;;;;;5140690;27;20473;-68
2023/07/01 08:21:56;;;;;;;5.30;4.80;;;17.90;1.00;;;;;;5140448;27;20454;-63
2023/07/01 08:24:24;;;;;;;5.40;4.23;;;17.70;1.00;;;;;;5139683;27;20875;-64
2023/07/01 08:26:51;;;;;;;5.57;4.70;;;17.40;1.00;;;;;;5139382;27;20868;-66
2023/07/01 08:29:19;;;;;;;5.03;4.53;;;17.20;1.00;;;;;;5139798;27;20470;-67
2023/07/01 08:31:46;;;;;;;5.10;4.60;;;17.20;1.00;;;;;;5137298;27;20527;-66
2023/07/01 08:34:16;;;;;;;8.17;5.20;;;17.10;25.70;;;;;;5137011;27;20471;-65
2023/07/01 08:36:43;;;;;;;5.97;4.73;;;17.10;13.30;;;;;;5139242;27;20482;-66
2023/07/01 08:39:12;;;;;;;5.70;4.40;;;17.00;55.50;;;;;;5139410;27;20524;-70
2023/07/01 08:41:45;;;;;;;6.10;5.33;;;17.10;99.90;;;;;;5131729;27;20463;-67
2023/07/01 08:44:13;;;;;;;5.20;4.17;;;17.10;99.90;;;;;;5119492;27;20771;-68
2023/07/01 08:46:41;;;;;;;7.03;5.10;;;17.40;99.90;;;;;;5134422;27;20467;-68
2023/07/01 08:49:09;;;;;;;5.83;5.10;;;17.60;99.90;;;;;;5117860;28;20716;-66
2023/07/01 08:51:42;;;;;;;5.93;4.43;;;17.70;99.90;;;;;;5118796;28;20455;-63
2023/07/01 08:54:10;;;;;;;4.33;3.93;;;17.70;99.90;;;;;;5118384;28;20460;-62
2023/07/01 08:56:40;;;;;;;5.63;3.97;;;17.80;99.90;;;;;;5118296;28;20472;-61
2023/07/01 08:59:08;;;;;;;6.77;4.50;;;17.80;99.90;;;;;;5118576;28;20555;-66
2023/07/01 09:01:38;;;;;;;5.70;5.10;;;17.80;99.90;;;;;;5127295;27;20498;-67
2023/07/01 09:04:06;;;;;;;5.27;4.63;;;17.80;99.90;;;;;;5136695;27;20811;-66
2023/07/01 09:06:33;;;;;;;4.77;4.33;;;17.80;1.00;;;;;;5124086;27;20456;-65
2023/07/01 09:09:02;;;;;;;5.20;4.70;;;17.90;1.00;;;;;;5135602;27;20466;-65
2023/07/01 09:11:29;;;;;;;3.97;3.50;;;18.00;99.90;;;;;;5136452;27;20545;-65
2023/07/01 09:13:58;;;;;;;4.43;4.03;;;18.00;99.90;;;;;;5118849;27;20470;-67
2023/07/01 09:16:33;;;;;;;4.73;3.87;;;18.10;99.90;;;;;;5135411;27;20481;-66
2023/07/01 09:19:05;;;;;;;5.67;4.43;;;17.90;99.90;;;;;;5134396;27;20475;-70
2023/07/01 09:21:32;;;;;;;5.40;4.60;;;17.80;1.00;;;;;;5117904;28;20906;-65
2023/07/01 09:24:00;;;;;;;5.07;4.67;;;17.80;99.90;;;;;;5116635;28;20520;-69
2023/07/01 09:26:30;;;;;;;4.93;4.10;;;17.70;99.90;;;;;;5116957;28;20456;-66
2023/07/01 09:29:01;;;;;;;5.30;4.37;;;17.80;1.00;;;;;;5127244;27;20647;-68
2023/07/01 09:31:28;;;;;;;4.30;3.70;;;17.80;1.00;;;;;;5134444;27;20866;-67
2023/07/01 09:34:01;;;;;;;5.30;4.80;;;17.90;1.00;;;;;;5130213;27;20462;-64
2023/07/01 09:36:30;;;;;;;4.50;3.87;;;17.70;99.90;;;;;;5134895;27;20491;-65
2023/07/01 09:38:57;;;;;;;4.80;4.40;;;17.70;1.00;;;;;;5135302;27;20808;-66
2023/07/01 09:41:26;;;;;;;4.83;4.40;;;17.60;1.00;;;;;;5136122;27;20773;-68
2023/07/01 09:43:55;;;;;;;4.80;4.40;;;17.80;1.00;;;;;;5136712;27;20532;-67
2023/07/01 09:46:24;;;;;;;5.40;4.97;;;18.00;99.90;;;;;;5137437;27;20461;-67
2023/07/01 09:48:55;;;;;;;5.10;4.60;;;18.10;1.00;;;;;;5136499;27;20892;-66
2023/07/01 09:51:23;;;;;;;5.47;4.97;;;18.20;99.90;;;;;;5132752;27;20462;-66
2023/07/01 09:53:51;;;;;;;5.63;5.13;;;18.20;1.00;;;;;;5132873;27;20887;-65
2023/07/01 09:56:19;;;;;;;4.97;4.43;;;18.00;99.90;;;;;;5136832;27;20487;-63
2023/07/01 09:58:48;;;;;;;4.90;4.50;;;17.90;99.90;;;;;;5125178;27;20464;-62
2023/07/01 10:01:17;;;;;;;5.53;4.30;;;17.90;99.90;;;;;;5112052;28;20490;-63
2023/07/01 10:03:46;;;;;;;5.03;4.63;;;17.90;1.00;;;;;;5129859;27;20454;-61
2023/07/01 10:06:13;;;;;;;4.90;4.20;;;17.70;93.70;;;;;;5131659;27;20470;-59
2023/07/01 10:08:43;;;;;;;4.90;4.50;;;17.50;1.00;;;;;;5127775;27;20464;-58
2023/07/01 10:11:22;;;;;;;5.23;4.80;;;17.40;99.90;;;;;;5135234;27;20471;-58
2023/07/01 10:13:53;;;;;;;5.70;5.20;;;17.20;1.00;;;;;;5135206;27;20895;-57
2023/07/01 10:16:20;;;;;;;5.67;5.17;;;17.30;1.00;;;;;;5133060;28;21002;-59
2023/07/01 10:18:49;;;;;;;5.30;4.83;;;17.40;1.00;;;;;;5125946;28;20458;-58
2023/07/01 10:21:31;;;;;;;5.20;4.10;;;17.60;1.00;;;;;;5134147;28;20547;-59
2023/07/01 10:23:59;;;;;;;4.23;3.83;;;17.80;99.90;;;;;;5134855;28;20440;-60
2023/07/01 10:26:43;;;;;;;4.40;3.97;;;17.90;72.50;;;;;;5134714;28;20464;-59
2023/07/01 10:29:41;;;;;;;4.60;4.20;;;18.10;15.50;;;;;;5135079;28;20490;-60
2023/07/01 10:32:38;;;;;;;4.57;4.10;;;18.50;99.90;;;;;;5032007;28;20451;-60
2023/07/01 10:35:11;;;;;;;3.90;3.50;;;18.50;99.90;;;;;;5093453;28;20475;-61
2023/07/01 10:37:38;;;;;;;3.70;3.30;;;18.70;99.90;;;;;;5115905;28;20467;-60
2023/07/01 10:40:43;;;;;;;3.10;2.90;;;18.80;99.90;;;;;;5126827;28;20465;-61
2023/07/01 10:43:32;;;;;;;4.00;3.57;;;18.90;1.00;;;;;;5137863;28;20565;-61
2023/07/01 10:46:15;;;;;;;3.47;3.17;;;18.90;1.00;;;;;;5137041;28;20541;-58
2023/07/01 10:48:43;;;;;;;3.33;3.03;;;19.00;1.00;;;;;;5137590;28;20460;-58
2023/07/01 10:51:13;;;;;;;3.20;2.90;;;18.90;1.00;;;;;;5136524;28;20454;-59
2023/07/01 10:54:00;;;;;;;3.00;2.80;;;19.10;99.90;;;;;;5137171;28;20797;-59
2023/07/01 10:56:29;;;;;;;3.00;2.80;;;19.30;1.00;;;;;;5137314;28;20493;-59
2023/07/01 10:59:20;;;;;;;3.07;2.77;;;19.50;11.10;;;;;;5136478;28;20549;-60
2023/07/01 11:01:49;;;;;;;3.63;3.10;;;19.30;1.00;;;;;;5136620;28;20551;-64
2023/07/01 11:04:18;;;;;;;3.30;3.00;;;19.10;1.00;;;;;;5138479;28;20451;-64
2023/07/01 11:06:51;;;;;;;3.10;2.80;;;19.00;1.00;;;;;;5136852;28;20466;-61
2023/07/01 11:09:28;;;;;;;2.80;2.60;;;19.00;9.80;;;;;;5138031;28;20514;-65
2023/07/01 11:11:57;;;;;;;2.90;2.60;;;19.00;1.00;;;;;;5138379;27;20454;-66
2023/07/01 11:14:31;;;;;;;2.87;2.67;;;18.90;1.00;;;;;;5140919;27;20437;-67
2023/07/01 11:17:06;;;;;;;2.80;2.07;;;19.00;1.00;;;;;;5141727;27;20490;-69
2023/07/01 11:19:34;;;;;;;3.00;2.70;;;19.00;1.00;;;;;;5141623;27;20465;-64
2023/07/01 11:22:03;;;;;;;3.03;2.80;;;18.90;99.90;;;;;;5142032;27;20466;-70
2023/07/01 11:24:31;;;;;;;3.93;3.10;;;18.80;99.90;;;;;;5141306;27;20469;-70
2023/07/01 11:27:03;;;;;;;4.03;2.90;;;18.80;99.90;;;;;;5139722;27;20455;-70
2023/07/01 11:29:31;;;;;;;2.97;2.67;;;18.80;1.00;;;;;;5142079;27;20462;-69
2023/07/01 11:32:00;;;;;;;2.87;2.00;;;18.70;95.30;;;;;;5142585;27;20485;-68
2023/07/01 11:34:27;;;;;;;2.67;2.47;;;18.70;1.00;;;;;;5142348;27;20504;-68
2023/07/01 11:36:55;;;;;;;2.80;2.40;;;18.60;1.00;;;;;;5141926;27;20543;-71
2023/07/01 11:39:24;;;;;;;2.30;1.90;;;18.40;99.90;;;;;;5141239;27;20459;-66
2023/07/01 11:41:54;;;;;;;2.30;2.00;;;18.30;99.90;;;;;;5142601;27;20476;-65
2023/07/01 11:44:22;;;;;;;2.50;2.20;;;18.10;99.90;;;;;;5142059;27;20565;-66
2023/07/01 11:46:50;;;;;;;3.00;2.70;;;18.10;99.90;;;;;;5141629;27;20458;-66
2023/07/01 11:49:19;;;;;;;2.83;2.63;;;18.10;99.90;;;;;;5140708;27;20454;-65
2023/07/01 11:51:48;;;;;;;2.93;2.60;;;18.20;99.90;;;;;;5140591;27;20518;-66
2023/07/01 11:54:16;;;;;;;4.07;2.20;;;18.30;1.00;;;;;;5141041;27;20458;-65
2023/07/01 11:56:46;;;;;;;2.43;2.17;;;18.30;99.90;;;;;;5140571;27;20584;-66
2023/07/01 11:59:30;;;;;;;2.43;2.17;;;18.30;99.90;;;;;;5140619;27;20459;-65
2023/07/01 12:01:57;;;;;;;3.10;2.20;;;18.40;99.90;;;;;;5141439;27;20957;-65
2023/07/01 12:04:24;;;;;;;2.17;1.67;;;18.40;87.00;;;;;;5139576;27;20846;-65
2023/07/01 12:07:05;;;;;;;2.37;1.80;;;18.30;1.00;;;;;;5139939;27;20435;-66
2023/07/01 12:09:32;;;;;;;2.20;1.70;;;18.20;58.10;;;;;;5142183;27;20464;-65
2023/07/01 12:12:01;;;;;;;2.10;1.50;;;18.10;99.90;;;;;;5143150;27;20458;-65
2023/07/01 12:14:29;;;;;;;2.37;2.10;;;17.90;99.90;;;;;;5141760;27;20440;-67
2023/07/01 12:16:56;;;;;;;2.40;1.60;;;17.90;91.80;;;;;;5139307;27;20483;-65
2023/07/01 12:19:26;;;;;;;2.90;2.13;;;17.80;5.00;;;;;;5139667;27;20459;-64
2023/07/01 12:21:54;;;;;;;2.80;2.40;;;17.80;1.00;;;;;;5139644;27;20561;-65
2023/07/01 12:24:22;;;;;;;3.40;3.07;;;17.70;1.00;;;;;;5138517;27;20473;-64
2023/07/01 12:26:50;;;;;;;3.00;2.77;;;17.70;39.20;;;;;;5139086;27;20462;-65
2023/07/01 12:29:19;;;;;;;3.20;2.90;;;17.70;1.00;;;;;;5138958;27;20454;-64
2023/07/01 12:31:46;;;;;;;3.90;3.57;;;17.60;99.90;;;;;;5138172;27;20465;-63
2023/07/01 12:34:13;;;;;;;3.60;3.27;;;17.70;99.90;;;;;;5138001;27;20466;-64
2023/07/01 12:36:41;;;;;;;4.37;3.97;;;17.80;1.00;;;;;;5138958;27;20585;-58
2023/07/01 12:39:09;;;;;;;4.13;3.70;;;17.80;1.00;;;;;;5138336;27;20460;-64
2023/07/01 12:41:36;;;;;;;3.57;3.23;;;17.90;1.00;;;;;;5139098;27;20894;-65
2023/07/01 12:44:04;;;;;;;3.40;2.97;;;18.00;1.00;;;;;;5136279;27;20471;-66
2023/07/01 12:46:33;;;;;;;3.20;2.90;;;17.90;99.90;;;;;;5137568;27;20466;-66
2023/07/01 12:49:02;;;;;;;3.10;2.70;;;17.90;99.90;;;;;;5138783;27;20437;-63
2023/07/01 12:51:29;;;;;;;2.80;2.60;;;18.00;1.00;;;;;;5137689;27;20454;-65
2023/07/01 12:53:57;;;;;;;3.00;2.63;;;18.00;99.90;;;;;;5138177;27;20762;-65
2023/07/01 12:56:25;;;;;;;2.60;2.40;;;18.10;1.00;;;;;;5137701;27;20494;-65
2023/07/01 12:58:52;;;;;;;2.53;2.30;;;18.20;1.00;;;;;;5138941;27;20774;-65